createdAt,value
2023-01-11T00:01:10.419Z,3.05
2023-01-11T00:03:38.545Z,3.15
2023-01-11T00:06:07.797Z,3.00
2023-01-11T00:08:36.541Z,2.12
2023-01-11T00:11:05.068Z,1.90
2023-01-11T00:13:33.683Z,1.57
2023-01-11T00:16:09.769Z,1.45
2023-01-11T00:18:40.602Z,1.60
2023-01-11T00:21:09.222Z,1.87
2023-01-11T00:23:38.274Z,1.55
2023-01-11T00:26:12.680Z,1.62
2023-01-11T00:28:40.707Z,1.27
2023-01-11T00:31:09.201Z,1.12
2023-01-11T00:33:37.606Z,1.22
2023-01-11T00:36:07.861Z,1.10
2023-01-11T00:38:46.570Z,1.20
2023-01-11T00:41:34.173Z,1.00
2023-01-11T00:44:21.318Z,0.82
2023-01-11T00:47:08.136Z,0.70
2023-01-11T00:49:36.413Z,0.98
2023-01-11T00:52:07.537Z,0.88
2023-01-11T00:54:41.249Z,0.80
2023-01-11T00:57:09.403Z,0.60
2023-01-11T00:59:45.612Z,0.65
2023-01-11T01:02:12.983Z,0.60
2023-01-11T01:04:40.960Z,0.40
2023-01-11T01:07:08.935Z,0.45
2023-01-11T01:09:36.775Z,0.60
2023-01-11T01:12:06.535Z,0.70
2023-01-11T01:14:35.045Z,0.55
2023-01-11T01:17:07.070Z,0.78
2023-01-11T01:19:38.217Z,0.53
2023-01-11T01:22:07.864Z,0.60
2023-01-11T01:24:35.634Z,0.50
2023-01-11T01:27:03.707Z,0.55
2023-01-11T01:29:31.731Z,0.50
2023-01-11T01:31:59.827Z,0.50
2023-01-11T01:34:31.008Z,0.33
2023-01-11T01:36:58.969Z,0.40
2023-01-11T01:39:27.019Z,0.70
2023-01-11T01:41:54.996Z,0.50
2023-01-11T01:45:03.093Z,0.30
2023-01-11T01:47:51.957Z,0.57
2023-01-11T01:50:33.873Z,0.50
2023-01-11T01:53:13.097Z,0.47
2023-01-11T01:55:45.521Z,0.50
2023-01-11T01:58:16.647Z,0.50
2023-01-11T02:00:51.031Z,0.80
2023-01-11T02:03:29.089Z,0.90
2023-01-11T02:06:03.422Z,0.80
2023-01-11T02:08:46.719Z,0.53
2023-01-11T02:11:31.641Z,0.60
2023-01-11T02:14:03.879Z,0.65
2023-01-11T02:16:32.001Z,0.70
2023-01-11T02:19:00.991Z,0.65
2023-01-11T02:21:51.137Z,0.80
2023-01-11T02:24:48.639Z,0.80
2023-01-11T02:27:33.503Z,0.50
2023-01-11T02:30:16.035Z,0.40
2023-01-11T02:33:07.851Z,0.70
2023-01-11T02:36:02.571Z,0.80
2023-01-11T02:38:47.084Z,0.80
2023-01-11T02:41:57.735Z,0.80
2023-01-11T02:45:03.947Z,0.80
2023-01-11T02:47:57.166Z,0.72
2023-01-11T02:50:36.426Z,0.78
2023-01-11T02:53:21.593Z,0.60
2023-01-11T02:55:54.730Z,0.60
2023-01-11T02:58:27.323Z,0.75
2023-01-11T03:00:59.073Z,0.60
2023-01-11T03:03:27.681Z,0.47
2023-01-11T03:06:16.326Z,0.50
2023-01-11T03:09:10.167Z,1.10
2023-01-11T03:12:23.113Z,0.95
2023-01-11T03:15:34.439Z,1.02
2023-01-11T03:18:33.881Z,0.80
2023-01-11T03:21:40.806Z,0.90
2023-01-11T03:24:47.397Z,0.60
2023-01-11T03:30:38.075Z,0.88
2023-01-11T03:33:12.998Z,1.00
2023-01-11T03:35:49.145Z,0.60
2023-01-11T03:38:28.011Z,0.47
2023-01-11T03:41:08.343Z,0.90
2023-01-11T03:43:43.601Z,0.70
2023-01-11T03:46:15.436Z,0.60
2023-01-11T03:48:51.974Z,0.80
2023-01-11T03:51:27.433Z,0.88
2023-01-11T03:54:01.094Z,0.85
2023-01-11T03:56:36.115Z,0.80
2023-01-11T03:59:05.186Z,0.90
2023-01-11T04:01:35.934Z,0.80
2023-01-11T04:04:04.287Z,0.57
2023-01-11T04:06:36.442Z,0.65
2023-01-11T04:09:06.232Z,0.70
2023-01-11T04:11:34.175Z,0.85
2023-01-11T04:14:03.384Z,1.22
2023-01-11T04:16:31.361Z,1.25
2023-01-11T04:18:59.596Z,1.07
2023-01-11T04:21:27.658Z,1.20
2023-01-11T04:23:55.602Z,0.65
2023-01-11T04:26:23.529Z,1.15
2023-01-11T04:28:54.126Z,0.93
2023-01-11T04:31:21.816Z,0.93
2023-01-11T04:33:49.799Z,0.80
2023-01-11T04:36:17.655Z,1.52
2023-01-11T04:38:45.623Z,0.70
2023-01-11T04:41:31.934Z,0.65
2023-01-11T04:44:00.101Z,0.53
2023-01-11T04:46:35.658Z,0.70
2023-01-11T04:49:08.113Z,0.80
2023-01-11T04:51:38.584Z,1.10
2023-01-11T04:54:13.267Z,0.90
2023-01-11T04:57:10.765Z,0.78
2023-01-11T05:00:04.066Z,0.55
2023-01-11T05:06:54.760Z,2.17
2023-01-11T05:10:07.349Z,0.70
2023-01-11T05:12:38.899Z,0.60
2023-01-11T05:15:08.513Z,1.10
2023-01-11T05:17:36.676Z,0.50
2023-01-11T05:20:05.241Z,0.50
2023-01-11T05:22:34.651Z,0.78
2023-01-11T05:25:02.242Z,0.45
2023-01-11T05:27:30.173Z,0.65
2023-01-11T05:29:57.786Z,0.90
2023-01-11T05:32:26.028Z,0.70
2023-01-11T05:34:53.749Z,1.25
2023-01-11T05:37:21.983Z,0.90
2023-01-11T05:39:49.623Z,0.57
2023-01-11T05:42:17.780Z,0.65
2023-01-11T05:45:04.276Z,0.50
2023-01-11T05:47:32.273Z,0.45
2023-01-11T05:49:59.647Z,0.88
2023-01-11T05:52:27.211Z,1.17
2023-01-11T05:54:55.222Z,1.07
2023-01-11T05:57:22.886Z,1.30
2023-01-11T05:59:50.959Z,1.30
2023-01-11T06:02:18.791Z,1.50
2023-01-11T06:04:47.203Z,1.60
2023-01-11T06:07:15.202Z,1.80
2023-01-11T06:09:42.899Z,2.80
2023-01-11T06:12:10.706Z,2.25
2023-01-11T06:14:38.447Z,1.92
2023-01-11T06:17:06.323Z,7.97
2023-01-11T06:19:34.344Z,10.72
2023-01-11T06:22:02.359Z,5.22
2023-01-11T06:24:30.139Z,2.65
2023-01-11T06:26:58.335Z,2.70
2023-01-11T06:29:26.118Z,1.90
2023-01-11T06:31:54.004Z,1.62
2023-01-11T06:34:21.865Z,1.60
2023-01-11T06:36:49.473Z,2.58
2023-01-11T06:39:17.238Z,2.17
2023-01-11T06:41:45.363Z,2.50
2023-01-11T06:44:13.346Z,1.82
2023-01-11T06:46:41.397Z,1.80
2023-01-11T06:49:10.974Z,2.35
2023-01-11T06:51:38.495Z,1.57
2023-01-11T06:54:06.377Z,1.77
2023-01-11T06:56:36.175Z,2.08
2023-01-11T06:59:05.384Z,1.82
2023-01-11T07:01:33.355Z,1.85
2023-01-11T07:04:01.144Z,3.47
2023-01-11T07:06:30.784Z,2.77
2023-01-11T07:08:58.488Z,2.27
2023-01-11T07:11:26.505Z,2.80
2023-01-11T07:13:54.325Z,1.90
2023-01-11T07:16:22.166Z,2.10
2023-01-11T07:18:49.913Z,2.15
2023-01-11T07:21:17.791Z,2.20
2023-01-11T07:23:45.437Z,2.60
2023-01-11T07:26:14.188Z,1.80
2023-01-11T07:28:42.194Z,1.82
2023-01-11T07:31:10.116Z,2.08
2023-01-11T07:33:37.998Z,1.75
2023-01-11T07:36:06.324Z,1.75
2023-01-11T07:38:34.466Z,1.20
2023-01-11T07:41:08.261Z,2.02
2023-01-11T07:43:36.421Z,1.47
2023-01-11T07:46:04.453Z,0.95
2023-01-11T07:48:32.514Z,1.00
2023-01-11T07:51:00.439Z,1.25
2023-01-11T07:53:28.323Z,1.37
2023-01-11T07:55:56.491Z,1.15
2023-01-11T07:58:24.815Z,1.65
2023-01-11T08:00:52.710Z,1.67
2023-01-11T08:03:21.044Z,1.30
2023-01-11T08:05:52.151Z,1.82
2023-01-11T08:08:23.357Z,1.60
2023-01-11T08:11:12.931Z,1.77
2023-01-11T08:13:59.172Z,1.80
2023-01-11T08:16:27.398Z,1.07
2023-01-11T08:18:55.527Z,1.87
2023-01-11T08:21:23.582Z,1.70
2023-01-11T08:23:54.973Z,2.77
2023-01-11T08:26:27.449Z,2.17
2023-01-11T08:28:55.890Z,2.00
2023-01-11T08:31:25.708Z,1.60
2023-01-11T08:33:53.669Z,1.55
2023-01-11T08:36:23.958Z,1.80
2023-01-11T08:38:55.353Z,1.07
2023-01-11T08:41:24.837Z,1.50
2023-01-11T08:43:54.248Z,1.67
2023-01-11T08:46:22.402Z,1.40
2023-01-11T08:48:50.427Z,3.12
2023-01-11T08:51:18.682Z,1.90
2023-01-11T08:53:51.574Z,1.60
2023-01-11T08:56:20.055Z,1.60
2023-01-11T08:58:48.089Z,1.60
2023-01-11T09:01:16.272Z,1.40
2023-01-11T09:03:45.110Z,1.42
2023-01-11T09:06:13.178Z,2.37
2023-01-11T09:08:42.220Z,1.85
2023-01-11T09:11:12.137Z,1.50
2023-01-11T09:13:40.067Z,3.27
2023-01-11T09:16:08.753Z,2.00
2023-01-11T09:18:37.219Z,1.85
2023-01-11T09:21:05.980Z,2.08
2023-01-11T09:23:35.249Z,2.12
2023-01-11T09:26:03.353Z,1.65
2023-01-11T09:28:33.339Z,2.40
2023-01-11T09:31:03.358Z,1.77
2023-01-11T09:33:31.164Z,2.72
2023-01-11T09:36:02.338Z,2.62
2023-01-11T09:38:30.535Z,2.98
2023-01-11T09:41:08.346Z,3.40
2023-01-11T09:43:43.490Z,3.05
2023-01-11T09:46:14.028Z,2.80
2023-01-11T09:48:53.505Z,2.47
2023-01-11T09:51:23.785Z,3.25
2023-01-11T09:53:53.441Z,2.33
2023-01-11T09:56:25.192Z,2.87
2023-01-11T09:59:01.887Z,2.60
2023-01-11T10:01:46.801Z,3.62
2023-01-11T10:04:48.194Z,3.58
2023-01-11T10:18:28.851Z,3.42
2023-01-11T10:19:35.605Z,4.30
2023-01-11T10:22:03.972Z,4.60
2023-01-11T10:24:42.551Z,4.42
2023-01-11T10:27:16.016Z,4.00
2023-01-11T10:29:51.348Z,5.28
2023-01-11T10:32:44.351Z,4.70
2023-01-11T10:35:43.405Z,5.87
2023-01-11T10:38:51.851Z,3.80
2023-01-11T10:41:29.666Z,3.40
2023-01-11T10:44:11.987Z,5.30
2023-01-11T10:46:44.854Z,5.47
2023-01-11T10:49:46.955Z,5.73
2023-01-11T10:52:34.626Z,6.95
2023-01-11T10:55:28.941Z,8.03
2023-01-11T10:58:24.901Z,5.30
2023-01-11T11:00:58.660Z,6.00
2023-01-11T11:03:50.600Z,6.70
2023-01-11T11:06:29.938Z,6.90
2023-01-11T11:09:18.519Z,5.67
2023-01-11T11:11:58.820Z,5.17
2023-01-11T11:14:48.985Z,7.67
2023-01-11T11:17:24.550Z,5.55
2023-01-11T11:19:53.154Z,5.42
2023-01-11T11:22:20.664Z,5.55
2023-01-11T11:24:53.712Z,4.55
2023-01-11T11:27:32.597Z,8.00
2023-01-11T11:30:00.450Z,6.03
2023-01-11T11:32:34.469Z,6.40
2023-01-11T11:35:02.278Z,10.13
2023-01-11T11:37:35.779Z,8.55
2023-01-11T11:40:05.314Z,16.48
2023-01-11T11:42:32.984Z,8.85
2023-01-11T11:45:14.711Z,7.05
2023-01-11T11:47:43.679Z,7.10
2023-01-11T11:50:43.047Z,8.85
2023-01-11T11:53:04.105Z,9.43
2023-01-11T11:55:36.617Z,10.25
2023-01-11T11:58:09.916Z,8.85
2023-01-11T12:00:48.227Z,10.70
2023-01-11T12:03:30.380Z,9.13
2023-01-11T12:06:09.438Z,9.23
2023-01-11T12:08:42.838Z,10.23
2023-01-11T12:11:16.057Z,9.98
2023-01-11T12:13:58.762Z,10.98
2023-01-11T12:16:34.840Z,11.12
2023-01-11T12:19:02.759Z,11.03
2023-01-11T12:21:30.811Z,9.95
2023-01-11T12:24:18.905Z,9.50
2023-01-11T12:27:10.479Z,10.98
2023-01-11T12:29:53.112Z,12.80
2023-01-11T12:32:53.943Z,13.78
2023-01-11T12:35:47.932Z,8.83
2023-01-11T12:38:45.388Z,8.08
2023-01-11T12:41:43.378Z,12.93
2023-01-11T12:44:30.173Z,12.88
2023-01-11T12:47:17.849Z,9.05
2023-01-11T12:49:56.328Z,11.28
2023-01-11T12:52:48.057Z,9.33
2023-01-11T12:56:11.458Z,8.73
2023-01-11T12:59:19.935Z,8.85
2023-01-11T13:02:24.384Z,7.33
2023-01-11T13:05:28.026Z,8.40
2023-01-11T13:08:10.087Z,8.03
2023-01-11T13:11:05.441Z,6.50
2023-01-11T13:13:47.683Z,5.72
2023-01-11T13:16:32.921Z,6.58
2023-01-11T13:19:08.878Z,9.98
2023-01-11T13:21:47.564Z,6.40
2023-01-11T13:24:22.933Z,4.30
2023-01-11T13:26:54.774Z,4.47
2023-01-11T13:29:43.063Z,4.40
2023-01-11T13:32:24.613Z,4.00
2023-01-11T13:35:03.735Z,4.17
2023-01-11T13:37:41.613Z,5.60
2023-01-11T13:40:26.644Z,4.50
2023-01-11T13:43:09.161Z,4.80
2023-01-11T13:45:42.989Z,4.47
2023-01-11T13:48:37.492Z,13.68
2023-01-11T13:51:16.737Z,11.35
2023-01-11T13:53:58.149Z,7.55
2023-01-11T13:56:37.432Z,9.00
2023-01-11T13:59:28.935Z,8.80
2023-01-11T14:02:09.635Z,14.40
2023-01-11T14:05:05.277Z,18.55
2023-01-11T14:08:30.721Z,13.05
2023-01-11T14:11:31.751Z,11.43
2023-01-11T14:14:19.548Z,8.70
2023-01-11T14:17:19.728Z,8.05
2023-01-11T14:20:12.185Z,7.70
2023-01-11T14:22:57.801Z,7.42
2023-01-11T14:25:49.525Z,6.78
2023-01-11T14:28:49.613Z,7.78
2023-01-11T14:31:58.191Z,8.93
2023-01-11T14:34:58.827Z,8.40
2023-01-11T14:38:24.792Z,9.28
2023-01-11T14:41:19.044Z,9.68
2023-01-11T14:47:19.453Z,8.68
2023-01-11T14:50:27.253Z,8.60
2023-01-11T14:52:59.091Z,10.32
2023-01-11T14:55:35.752Z,12.33
2023-01-11T14:58:26.760Z,10.93
2023-01-11T15:01:00.169Z,9.85
2023-01-11T15:03:38.950Z,10.13
2023-01-11T15:06:19.139Z,11.20
2023-01-11T15:08:56.713Z,9.95
2023-01-11T15:11:36.252Z,10.90
2023-01-11T15:14:26.059Z,16.32
2023-01-11T15:17:16.466Z,18.23
2023-01-11T15:19:45.040Z,16.80
2023-01-11T15:22:34.030Z,17.73
2023-01-11T15:25:26.059Z,16.55
2023-01-11T15:27:55.263Z,18.32
2023-01-11T15:30:35.334Z,15.93
2023-01-11T15:33:25.026Z,17.05
2023-01-11T15:36:03.056Z,16.35
2023-01-11T15:38:36.536Z,21.30
2023-01-11T15:41:27.181Z,20.52
2023-01-11T15:44:18.798Z,23.35
2023-01-11T15:47:29.218Z,24.60
2023-01-11T15:50:15.821Z,19.95
2023-01-11T15:53:12.031Z,21.00
2023-01-11T15:56:21.796Z,18.87
2023-01-11T15:59:24.345Z,23.98
2023-01-11T16:02:17.853Z,20.62
2023-01-11T16:05:21.625Z,37.53
2023-01-11T16:08:22.223Z,34.15
2023-01-11T16:11:16.303Z,29.92
2023-01-11T16:14:18.519Z,26.82
2023-01-11T16:16:54.004Z,50.33
2023-01-11T16:19:29.927Z,19.95
2023-01-11T16:22:04.182Z,11.03
2023-01-11T16:24:55.050Z,22.77
2023-01-11T16:27:35.689Z,18.37
2023-01-11T16:30:05.590Z,55.95
2023-01-11T16:32:38.557Z,24.07
2023-01-11T16:35:33.562Z,16.12
2023-01-11T16:38:05.928Z,15.45
2023-01-11T16:40:40.919Z,21.90
2023-01-11T16:43:16.886Z,17.57
2023-01-11T16:45:48.964Z,17.30
2023-01-11T16:48:28.117Z,17.23
2023-01-11T16:51:03.941Z,15.30
2023-01-11T16:53:38.921Z,9.85
2023-01-11T16:56:11.785Z,9.93
2023-01-11T16:59:08.059Z,10.72
2023-01-11T17:01:53.571Z,12.85
2023-01-11T17:04:37.214Z,15.13
2023-01-11T17:07:27.892Z,13.68
2023-01-11T17:10:20.851Z,17.90
2023-01-11T17:13:48.598Z,17.30
2023-01-11T17:16:18.696Z,24.90
2023-01-11T17:18:46.946Z,29.85
2023-01-11T17:21:25.180Z,32.23
2023-01-11T17:24:00.379Z,47.95
2023-01-11T17:29:22.593Z,34.50
2023-01-11T17:31:59.689Z,37.23
2023-01-11T17:34:36.757Z,35.10
2023-01-11T17:37:09.523Z,33.75
2023-01-11T17:39:44.595Z,34.67
2023-01-11T17:42:33.555Z,33.10
2023-01-11T17:45:13.686Z,23.60
2023-01-11T17:47:54.945Z,18.45
2023-01-11T17:50:38.331Z,21.82
2023-01-11T17:53:22.017Z,22.67
2023-01-11T17:56:05.088Z,18.37
2023-01-11T17:58:36.697Z,16.50
2023-01-11T18:01:21.504Z,16.95
2023-01-11T18:03:59.105Z,17.55
2023-01-11T18:07:13.530Z,20.02
2023-01-11T18:09:50.510Z,21.00
2023-01-11T18:12:23.296Z,22.17
2023-01-11T18:14:59.566Z,17.87
2023-01-11T18:17:41.631Z,18.70
2023-01-11T18:20:40.509Z,18.48
2023-01-11T18:23:18.414Z,18.02
2023-01-11T18:25:46.720Z,18.50
2023-01-11T18:28:27.843Z,23.73
2023-01-11T18:31:01.148Z,40.95
2023-01-11T18:33:33.096Z,53.65
2023-01-11T18:36:04.109Z,42.98
2023-01-11T18:38:35.377Z,44.45
2023-01-11T18:41:30.979Z,46.30
2023-01-11T18:44:04.460Z,42.65
2023-01-11T18:46:32.531Z,46.68
2023-01-11T18:49:00.582Z,41.45
2023-01-11T18:51:35.601Z,33.85
2023-01-11T18:56:43.725Z,23.22
2023-01-11T18:59:11.948Z,21.42
2023-01-11T19:02:17.056Z,19.87
2023-01-11T19:04:46.249Z,19.27
2023-01-11T19:07:14.698Z,18.70
2023-01-11T19:09:44.581Z,24.85
2023-01-11T19:12:13.510Z,38.53
2023-01-11T19:14:43.786Z,28.95
2023-01-11T19:17:13.122Z,24.27
2023-01-11T19:19:41.243Z,23.22
2023-01-11T19:22:11.247Z,22.58
2023-01-11T19:24:39.610Z,22.70
2023-01-11T19:27:07.778Z,23.57
2023-01-11T19:29:35.509Z,23.67
2023-01-11T19:32:03.516Z,22.85
2023-01-11T19:34:33.646Z,21.90
2023-01-11T19:37:01.936Z,33.18
2023-01-11T19:39:30.123Z,36.90
2023-01-11T19:42:01.600Z,20.90
2023-01-11T19:44:32.788Z,18.85
2023-01-11T19:47:11.291Z,14.63
2023-01-11T19:49:31.805Z,18.05
2023-01-11T19:52:01.563Z,21.37
2023-01-11T19:54:29.565Z,29.72
2023-01-11T19:56:59.837Z,29.50
2023-01-11T19:59:29.069Z,31.65
2023-01-11T20:01:57.256Z,33.60
2023-01-11T20:04:26.496Z,40.80
2023-01-11T20:06:54.589Z,41.30
2023-01-11T20:09:23.735Z,37.38
2023-01-11T20:11:52.812Z,35.28
2023-01-11T20:14:23.044Z,39.33
2023-01-11T20:16:51.638Z,38.90
2023-01-11T20:19:19.905Z,41.80
2023-01-11T20:21:47.868Z,39.65
2023-01-11T20:24:16.168Z,37.28
2023-01-11T20:26:46.160Z,36.75
2023-01-11T20:29:14.465Z,31.70
2023-01-11T20:31:42.889Z,30.70
2023-01-11T20:34:13.430Z,34.50
2023-01-11T20:36:43.904Z,32.50
2023-01-11T20:39:12.237Z,33.65
2023-01-11T20:41:50.473Z,31.97
2023-01-11T20:44:23.987Z,30.77
2023-01-11T20:46:53.929Z,31.77
2023-01-11T20:49:24.345Z,31.42
2023-01-11T20:51:54.216Z,37.08
2023-01-11T20:54:22.941Z,43.75
2023-01-11T20:56:53.914Z,56.05
2023-01-11T20:59:21.672Z,50.12
2023-01-11T21:01:50.175Z,56.73
2023-01-11T21:04:19.366Z,44.48
2023-01-11T21:06:48.840Z,42.00
2023-01-11T21:09:18.251Z,43.00
2023-01-11T21:11:47.866Z,43.02
2023-01-11T21:14:15.645Z,46.83
2023-01-11T21:16:43.760Z,47.75
2023-01-11T21:19:13.837Z,42.48
2023-01-11T21:21:42.739Z,40.58
2023-01-11T21:24:14.767Z,39.98
2023-01-11T21:26:44.908Z,43.65
2023-01-11T21:29:12.792Z,38.45
2023-01-11T21:31:41.225Z,53.40
2023-01-11T21:34:14.270Z,50.88
2023-01-11T21:36:43.292Z,44.83
2023-01-11T21:39:14.408Z,43.35
2023-01-11T21:41:55.116Z,37.35
2023-01-11T21:44:27.465Z,35.52
2023-01-11T21:46:55.225Z,34.30
2023-01-11T21:49:23.696Z,31.52
2023-01-11T21:51:52.486Z,31.55
2023-01-11T21:54:20.748Z,31.07
2023-01-11T21:56:49.590Z,29.67
2023-01-11T21:59:17.715Z,28.95
2023-01-11T22:01:48.276Z,32.93
2023-01-11T22:04:20.020Z,28.90
2023-01-11T22:06:53.779Z,29.10
2023-01-11T22:09:22.652Z,25.12
2023-01-11T22:11:50.721Z,22.62
2023-01-11T22:14:18.571Z,22.60
2023-01-11T22:16:46.450Z,23.67
2023-01-11T22:19:14.767Z,23.85
2023-01-11T22:21:42.622Z,27.15
2023-01-11T22:24:11.754Z,29.15
2023-01-11T22:26:40.219Z,34.15
2023-01-11T22:29:11.804Z,32.93
2023-01-11T22:31:53.594Z,33.60
2023-01-11T22:34:22.135Z,32.90
2023-01-11T22:36:50.230Z,32.93
2023-01-11T22:39:19.127Z,31.80
2023-01-11T22:41:49.064Z,28.15
2023-01-11T22:44:17.317Z,30.60
2023-01-11T22:46:45.511Z,29.05
2023-01-11T22:49:14.257Z,28.98
2023-01-11T22:51:43.574Z,28.62
2023-01-11T22:54:11.844Z,28.85
2023-01-11T22:56:39.669Z,26.65
2023-01-11T22:59:07.871Z,27.15
2023-01-11T23:01:38.517Z,25.77
2023-01-11T23:04:10.028Z,24.77
2023-01-11T23:06:41.875Z,26.55
2023-01-11T23:09:16.296Z,27.87
2023-01-11T23:12:03.521Z,26.57
2023-01-11T23:14:32.782Z,27.35
2023-01-11T23:17:06.519Z,26.97
2023-01-11T23:19:38.493Z,27.65
2023-01-11T23:22:08.069Z,29.05
2023-01-11T23:24:38.439Z,29.63
2023-01-11T23:27:06.352Z,30.82
2023-01-11T23:29:35.063Z,31.33
2023-01-11T23:32:03.137Z,31.30
2023-01-11T23:34:31.012Z,31.62
2023-01-11T23:36:58.805Z,33.85
2023-01-11T23:39:26.727Z,38.83
2023-01-11T23:42:12.648Z,41.80
2023-01-11T23:44:40.349Z,41.35
2023-01-11T23:47:28.199Z,36.98
2023-01-11T23:50:00.874Z,32.42
2023-01-11T23:52:31.623Z,27.15
2023-01-11T23:54:59.673Z,28.40
2023-01-11T23:57:27.650Z,25.68
2023-01-11T23:59:55.429Z,27.30
